Belgrade, Serbia
Current Conditions -  °F | °C
As of 8:00 AM on Sunday 26 Oct 2014 (Local Time) from LYBE Reporting Station
Broken Clouds Broken Clouds  
Wind Chill: 36°   Ceiling: 4000
Heat Index: 41°   Visibility: 6mi
Dew Point: 34°   Wind: 7mph
Humidity: 76%   Direction: 70°ENE
Pressure: 30.39"   Gusts: NA
Location:  44.83°N, 20.5°E
Report Text: LYBE 260600Z 07006KT 9999 BKN040 05/01 Q1029 NOSIG
Loading
Personal Weather Stations






























Interactive Weather Map
Tropical Storm Tracking
New forecast layout! Learn more

10-Day Weather Forecast

Advertisements
Track Severe Weather on mobile